Montello, Nevada
Current Conditions -  °F | °C
As of 5:15 AM on Monday 22 Dec 2014 (Local Time) from KENV Reporting Station
Overcast Overcast  
Wind Chill: 37°   Ceiling: 6000
Heat Index: 41°   Visibility: 10mi
Dew Point: 34°   Wind: 6mph
Humidity: 76%   Direction: 70°ENE
Pressure: 30"   Gusts: NA
Location:  41.26°N, 114.2°W
Report Text: KENV 221315Z AUTO 07005KT 10SM BKN060 OVC065 05/01 A3000 RMK AO1
Loading
Personal Weather Stations






























Interactive Weather Map New forecast layout! Learn more

10-Day Weather Forecast

Advertisements
Track Severe Weather on mobile